Time;durP1;ratioP1;P1;durP2;ratioP2;P2;SDS_P1;SDS_P2;PMS_P1;PMS_P2;Temp;Humidity;BMP_temperature;BMP_pressure;BME280_temperature;BME280_humidity;BME280_pressure;Samples;Min_cycle;Max_cycle;Signal;HPM_P1;HPM_P2
2021/11/09 00:01:02;;;;;;;14.73;8.87;;;;;;;;;;5135629;27;20251;-91
2021/11/09 00:03:29;;;;;;;11.73;7.93;;;;;;;;;;5135591;27;20206;-92
2021/11/09 00:06:02;;;;;;;9.13;7.30;;;;;;;;;;5135803;27;20575;-92
2021/11/09 00:08:34;;;;;;;10.63;7.37;;;;;;;;;;5135446;27;20205;-92
2021/11/09 00:11:02;;;;;;;8.67;7.40;;;;;;;;;;5135357;27;20200;-92
2021/11/09 00:13:30;;;;;;;7.73;6.60;;;;;;;;;;5135822;27;20728;-93
2021/11/09 00:15:58;;;;;;;12.10;7.67;;;;;;;;;;5135530;27;20244;-92
2021/11/09 00:18:25;;;;;;;10.97;6.90;;;;;;;;;;5136892;27;20197;-93
2021/11/09 00:20:53;;;;;;;9.73;7.50;;;;;;;;;;5134419;27;20242;-92
2021/11/09 00:23:20;;;;;;;10.83;8.13;;;;;;;;;;5135264;27;20267;-93
2021/11/09 00:25:48;;;;;;;12.97;7.80;;;;;;;;;;5135083;27;20199;-93
2021/11/09 00:28:15;;;;;;;11.17;8.17;;;;;;;;;;5135162;27;20626;-92
2021/11/09 00:30:44;;;;;;;12.53;8.23;;;;;;;;;;5135177;27;20194;-92
2021/11/09 00:33:11;;;;;;;13.17;9.23;;;;;;;;;;5135512;27;20566;-93
2021/11/09 00:35:39;;;;;;;14.80;8.20;;;;;;;;;;5135102;27;20251;-93
2021/11/09 00:38:10;;;;;;;11.33;8.90;;;;;;;;;;5134971;27;20191;-93
2021/11/09 00:40:39;;;;;;;12.57;9.33;;;;;;;;;;5134867;27;20758;-93
2021/11/09 00:43:08;;;;;;;9.07;7.43;;;;;;;;;;5134727;27;20281;-93
2021/11/09 00:45:35;;;;;;;13.10;10.83;;;;;;;;;;5134706;27;20195;-93
2021/11/09 00:48:05;;;;;;;10.97;8.33;;;;;;;;;;5134823;27;20256;-93
2021/11/09 00:50:33;;;;;;;14.53;10.60;;;;;;;;;;5134844;27;20284;-92
2021/11/09 00:53:00;;;;;;;22.90;14.17;;;;;;;;;;5134468;27;20193;-92
2021/11/09 00:55:29;;;;;;;18.73;13.73;;;;;;;;;;5134352;27;20259;-93
2021/11/09 00:57:56;;;;;;;25.90;15.73;;;;;;;;;;5134573;27;20231;-93
2021/11/09 01:00:27;;;;;;;26.10;18.60;;;;;;;;;;5133869;27;20219;-91
2021/11/09 01:02:54;;;;;;;21.73;16.23;;;;;;;;;;5134838;27;20191;-92
2021/11/09 01:05:26;;;;;;;24.07;18.93;;;;;;;;;;5134588;27;20239;-93
2021/11/09 01:07:57;;;;;;;23.73;18.23;;;;;;;;;;5134263;27;20231;-92
2021/11/09 01:10:25;;;;;;;20.63;16.20;;;;;;;;;;5134344;27;20214;-91
2021/11/09 01:12:53;;;;;;;19.20;15.70;;;;;;;;;;5134189;27;20190;-92
2021/11/09 01:15:20;;;;;;;26.53;16.37;;;;;;;;;;5134114;27;20237;-91
2021/11/09 01:17:48;;;;;;;24.77;16.80;;;;;;;;;;5134136;27;20230;-91
2021/11/09 01:20:19;;;;;;;23.37;16.83;;;;;;;;;;5134245;27;20223;-91
2021/11/09 01:22:51;;;;;;;23.20;17.83;;;;;;;;;;5134353;27;20193;-92
2021/11/09 01:25:19;;;;;;;21.57;16.47;;;;;;;;;;5134103;27;20279;-92
2021/11/09 01:27:46;;;;;;;21.80;17.10;;;;;;;;;;5133922;27;20293;-92
2021/11/09 01:30:15;;;;;;;16.83;12.37;;;;;;;;;;5134385;27;20230;-90
2021/11/09 01:32:42;;;;;;;12.47;10.70;;;;;;;;;;5133255;27;20201;-92
2021/11/09 01:35:10;;;;;;;14.50;11.70;;;;;;;;;;5134235;27;20209;-92
2021/11/09 01:37:38;;;;;;;19.93;12.57;;;;;;;;;;5134100;27;20199;-91
2021/11/09 01:40:09;;;;;;;16.30;10.00;;;;;;;;;;5134067;27;20195;-92
2021/11/09 01:42:37;;;;;;;13.67;10.23;;;;;;;;;;5133805;27;20643;-92
2021/11/09 01:45:06;;;;;;;12.97;9.47;;;;;;;;;;5133913;28;20281;-92
2021/11/09 01:47:33;;;;;;;15.40;11.23;;;;;;;;;;5133940;27;20201;-91
2021/11/09 01:50:01;;;;;;;15.53;11.87;;;;;;;;;;5133871;28;20195;-92
2021/11/09 01:52:28;;;;;;;18.20;12.77;;;;;;;;;;5133830;27;20254;-92
2021/11/09 01:54:56;;;;;;;20.13;14.33;;;;;;;;;;5133749;28;20205;-92
2021/11/09 01:57:25;;;;;;;24.43;16.53;;;;;;;;;;5133936;28;20199;-94
2021/11/09 01:59:57;;;;;;;20.50;13.97;;;;;;;;;;5130256;28;20235;-92
2021/11/09 02:02:24;;;;;;;19.40;15.37;;;;;;;;;;5133943;28;20247;-93
2021/11/09 02:04:52;;;;;;;18.50;14.60;;;;;;;;;;5134521;28;20186;-92
2021/11/09 02:07:19;;;;;;;20.07;16.70;;;;;;;;;;5133871;28;20198;-91
2021/11/09 02:09:47;;;;;;;23.73;16.53;;;;;;;;;;5133902;28;20223;-90
2021/11/09 02:12:14;;;;;;;16.67;14.93;;;;;;;;;;5133510;28;20194;-90
2021/11/09 02:14:43;;;;;;;19.23;15.80;;;;;;;;;;5133473;28;20289;-91
2021/11/09 02:17:11;;;;;;;20.93;16.97;;;;;;;;;;5133526;28;20701;-91
2021/11/09 02:19:39;;;;;;;24.60;17.47;;;;;;;;;;5133811;28;20193;-90
2021/11/09 02:22:09;;;;;;;19.13;16.50;;;;;;;;;;5133330;28;20597;-90
2021/11/09 02:24:36;;;;;;;19.40;16.17;;;;;;;;;;5133657;28;20251;-91
2021/11/09 02:27:04;;;;;;;21.43;16.53;;;;;;;;;;5133858;28;20187;-90
2021/11/09 02:29:32;;;;;;;28.73;17.03;;;;;;;;;;5133624;28;20187;-90
2021/11/09 02:32:00;;;;;;;22.00;17.60;;;;;;;;;;5133415;28;20190;-90
2021/11/09 02:34:27;;;;;;;19.60;16.17;;;;;;;;;;5133308;28;20238;-91
2021/11/09 02:36:55;;;;;;;23.33;17.07;;;;;;;;;;5133331;27;20208;-91
2021/11/09 02:39:24;;;;;;;26.50;17.50;;;;;;;;;;5133280;28;20195;-91
2021/11/09 02:41:51;;;;;;;25.03;17.10;;;;;;;;;;5133440;27;20280;-91
2021/11/09 02:44:21;;;;;;;22.40;16.93;;;;;;;;;;5135497;27;20191;-92
2021/11/09 02:46:52;;;;;;;20.90;17.93;;;;;;;;;;5137231;27;20195;-92
2021/11/09 02:49:23;;;;;;;21.40;17.03;;;;;;;;;;5137495;27;20219;-92
2021/11/09 02:51:53;;;;;;;20.30;15.80;;;;;;;;;;5137029;27;20178;-92
2021/11/09 02:54:25;;;;;;;22.03;16.57;;;;;;;;;;5136994;27;20677;-90
2021/11/09 02:56:58;;;;;;;19.57;15.30;;;;;;;;;;5137505;27;20277;-91
2021/11/09 02:59:38;;;;;;;21.70;16.47;;;;;;;;;;5136912;27;20230;-91
2021/11/09 03:02:12;;;;;;;24.20;17.27;;;;;;;;;;5136634;27;20225;-90
2021/11/09 03:04:53;;;;;;;21.23;16.07;;;;;;;;;;5136945;27;20662;-91
2021/11/09 03:07:29;;;;;;;22.10;17.70;;;;;;;;;;5136741;27;20199;-91
2021/11/09 03:09:59;;;;;;;18.50;15.47;;;;;;;;;;5136912;27;20193;-91
2021/11/09 03:12:32;;;;;;;23.03;16.20;;;;;;;;;;5136746;27;20272;-91
2021/11/09 03:14:59;;;;;;;21.80;16.93;;;;;;;;;;5136719;27;20193;-91
2021/11/09 03:17:35;;;;;;;23.60;17.17;;;;;;;;;;5136311;27;20195;-91
2021/11/09 03:20:03;;;;;;;22.23;18.33;;;;;;;;;;5136291;27;20190;-90
2021/11/09 03:44:36;;;;;;;25.43;17.97;;;;;;;;;;5136542;27;20182;-93
2021/11/09 03:47:05;;;;;;;22.90;17.60;;;;;;;;;;5136035;27;20183;-92
2021/11/09 03:49:34;;;;;;;20.67;17.17;;;;;;;;;;5136230;27;20199;-92
2021/11/09 03:52:07;;;;;;;23.93;16.87;;;;;;;;;;5135656;27;20269;-91
2021/11/09 03:54:34;;;;;;;20.20;15.60;;;;;;;;;;5134900;27;20183;-90
2021/11/09 03:57:07;;;;;;;23.47;17.50;;;;;;;;;;5135460;27;20293;-90
2021/11/09 04:02:53;;;;;;;23.70;16.17;;;;;;;;;;5130315;27;20233;-90
2021/11/09 04:05:23;;;;;;;20.23;16.90;;;;;;;;;;5135629;27;20214;-90
2021/11/09 04:07:58;;;;;;;24.53;17.00;;;;;;;;;;5135525;27;20195;-91
2021/11/09 04:10:34;;;;;;;21.70;16.03;;;;;;;;;;5135475;27;20673;-91
2021/11/09 04:13:10;;;;;;;22.27;17.53;;;;;;;;;;5135347;27;20320;-91
2021/11/09 04:16:06;;;;;;;;;;;;;;;;;;;;;
2021/11/09 04:18:57;;;;;;;21.40;16.07;;;;;;;;;;5139989;27;20654;-90
2021/11/09 04:27:16;;;;;;;19.80;16.40;;;;;;;;;;5135761;27;20181;-90
2021/11/09 05:03:04;;;;;;;27.07;21.40;;;;;;;;;;5134292;27;20284;-91
2021/11/09 05:10:59;;;;;;;26.77;20.40;;;;;;;;;;5131378;27;20190;-90
2021/11/09 05:13:27;;;;;;;27.67;20.13;;;;;;;;;;5134064;27;20205;-90
2021/11/09 05:15:54;;;;;;;38.20;27.87;;;;;;;;;;5133945;27;20191;-90
2021/11/09 05:18:22;;;;;;;36.30;25.50;;;;;;;;;;5134847;27;20300;-90
2021/11/09 05:20:51;;;;;;;42.97;34.53;;;;;;;;;;5133732;27;20253;-88
2021/11/09 05:23:18;;;;;;;40.77;30.47;;;;;;;;;;5134402;27;20215;-91
2021/11/09 05:25:47;;;;;;;35.87;27.33;;;;;;;;;;5134211;27;20205;-91
2021/11/09 05:28:15;;;;;;;26.23;21.20;;;;;;;;;;5133957;27;20217;-92
2021/11/09 05:30:46;;;;;;;23.00;19.93;;;;;;;;;;5133879;27;20259;-91
2021/11/09 05:33:14;;;;;;;25.53;22.27;;;;;;;;;;5133773;27;20195;-91
2021/11/09 05:35:41;;;;;;;27.00;21.60;;;;;;;;;;5134149;27;20638;-91
2021/11/09 05:38:12;;;;;;;30.13;21.63;;;;;;;;;;5134134;27;20567;-91
2021/11/09 05:40:41;;;;;;;26.00;19.67;;;;;;;;;;5133751;27;20186;-91
2021/11/09 05:43:09;;;;;;;25.43;20.03;;;;;;;;;;5133603;27;20330;-91
2021/11/09 05:45:36;;;;;;;24.20;20.17;;;;;;;;;;5133786;28;20570;-90
2021/11/09 05:48:04;;;;;;;33.73;25.50;;;;;;;;;;5133790;28;20195;-91
2021/11/09 05:50:32;;;;;;;26.70;22.57;;;;;;;;;;5133773;28;20215;-91
2021/11/09 05:52:59;;;;;;;26.77;19.93;;;;;;;;;;5133921;28;20186;-91
2021/11/09 05:55:29;;;;;;;24.47;18.93;;;;;;;;;;5134331;28;20200;-91
2021/11/09 05:57:56;;;;;;;23.50;19.20;;;;;;;;;;5133896;27;20194;-91
2021/11/09 06:00:23;;;;;;;23.07;18.00;;;;;;;;;;5133527;28;20194;-91
2021/11/09 06:02:51;;;;;;;23.87;17.70;;;;;;;;;;5133552;27;20214;-91
2021/11/09 06:05:18;;;;;;;23.43;18.93;;;;;;;;;;5133486;28;20195;-91
2021/11/09 06:07:45;;;;;;;26.67;18.90;;;;;;;;;;5133735;27;20596;-91
2021/11/09 06:10:13;;;;;;;27.37;20.80;;;;;;;;;;5133636;28;20662;-92
2021/11/09 06:12:42;;;;;;;22.70;19.17;;;;;;;;;;5133604;27;20285;-92
2021/11/09 06:15:10;;;;;;;28.77;20.33;;;;;;;;;;5133676;28;20211;-92
2021/11/09 06:17:38;;;;;;;24.00;18.93;;;;;;;;;;5133575;27;20190;-92
2021/11/09 06:20:07;;;;;;;23.43;18.27;;;;;;;;;;5137382;27;20251;-93
2021/11/09 06:22:36;;;;;;;21.87;18.53;;;;;;;;;;5137430;27;20218;-92
2021/11/09 06:25:04;;;;;;;25.47;19.20;;;;;;;;;;5137857;27;20194;-92
2021/11/09 06:27:31;;;;;;;25.27;19.17;;;;;;;;;;5137862;27;20195;-92
2021/11/09 06:30:00;;;;;;;24.37;19.07;;;;;;;;;;5137392;27;20193;-92
2021/11/09 06:32:27;;;;;;;23.23;18.67;;;;;;;;;;5137469;27;20190;-92
2021/11/09 06:34:55;;;;;;;23.77;17.30;;;;;;;;;;5137327;27;20663;-92
2021/11/09 06:37:22;;;;;;;22.17;18.63;;;;;;;;;;5137377;27;20197;-92
2021/11/09 06:39:51;;;;;;;24.60;18.87;;;;;;;;;;5137698;27;20195;-92
2021/11/09 06:42:18;;;;;;;35.97;27.00;;;;;;;;;;5137088;27;20305;-92
2021/11/09 06:44:46;;;;;;;21.73;17.80;;;;;;;;;;5137155;27;20195;-92
2021/11/09 06:47:15;;;;;;;21.93;17.60;;;;;;;;;;5137219;27;20631;-92
2021/11/09 06:49:42;;;;;;;25.70;19.73;;;;;;;;;;5137567;27;20191;-91
2021/11/09 06:52:10;;;;;;;23.30;19.00;;;;;;;;;;5137274;27;20249;-91
2021/11/09 06:54:37;;;;;;;24.13;18.87;;;;;;;;;;5137037;27;20203;-91
2021/11/09 06:57:05;;;;;;;24.10;18.10;;;;;;;;;;5137144;27;20206;-90
2021/11/09 06:59:32;;;;;;;20.30;17.87;;;;;;;;;;5136996;27;20264;-91
2021/11/09 07:02:00;;;;;;;20.00;17.57;;;;;;;;;;5136697;27;20246;-91
2021/11/09 07:04:30;;;;;;;22.67;18.77;;;;;;;;;;5136747;27;20251;-91
2021/11/09 07:06:58;;;;;;;22.13;17.73;;;;;;;;;;5136801;27;20278;-91
2021/11/09 07:09:27;;;;;;;23.53;18.23;;;;;;;;;;5136792;27;20255;-91
2021/11/09 07:11:54;;;;;;;26.43;20.13;;;;;;;;;;5136572;27;20273;-91
2021/11/09 07:14:22;;;;;;;22.27;17.53;;;;;;;;;;5136599;27;20191;-91
2021/11/09 07:16:51;;;;;;;25.47;19.33;;;;;;;;;;5137032;27;20198;-91
2021/11/09 07:19:19;;;;;;;25.63;19.00;;;;;;;;;;5136574;27;20199;-91
2021/11/09 07:21:49;;;;;;;21.23;18.07;;;;;;;;;;5136355;27;20575;-91
2021/11/09 07:24:17;;;;;;;24.60;19.33;;;;;;;;;;5136736;27;20190;-91
2021/11/09 07:26:44;;;;;;;24.87;19.93;;;;;;;;;;5136503;27;20195;-91
2021/11/09 07:29:11;;;;;;;20.53;17.77;;;;;;;;;;5136279;27;20206;-91
2021/11/09 07:31:39;;;;;;;24.17;19.03;;;;;;;;;;5136212;27;20214;-91
2021/11/09 07:34:07;;;;;;;24.67;18.80;;;;;;;;;;5136248;27;20194;-91
2021/11/09 07:36:35;;;;;;;21.40;18.20;;;;;;;;;;5136165;27;20194;-91
2021/11/09 07:39:07;;;;;;;26.43;19.67;;;;;;;;;;5136144;27;20211;-89
2021/11/09 07:41:35;;;;;;;24.00;19.30;;;;;;;;;;5136173;27;20205;-92
2021/11/09 07:44:04;;;;;;;23.77;19.07;;;;;;;;;;5135303;27;20215;-91
2021/11/09 07:46:33;;;;;;;25.93;20.20;;;;;;;;;;5136354;27;20214;-91
2021/11/09 07:49:01;;;;;;;26.57;19.00;;;;;;;;;;5135961;27;20645;-91
2021/11/09 07:51:28;;;;;;;25.37;20.27;;;;;;;;;;5135897;27;20255;-92
2021/11/09 07:53:58;;;;;;;23.50;19.83;;;;;;;;;;5136098;27;20199;-92
2021/11/09 07:56:30;;;;;;;27.67;19.80;;;;;;;;;;5136020;27;20218;-92
2021/11/09 07:59:10;;;;;;;26.53;21.40;;;;;;;;;;5135530;27;20227;-91
2021/11/09 08:01:42;;;;;;;29.80;25.20;;;;;;;;;;5135842;27;20230;-91
2021/11/09 08:04:12;;;;;;;31.60;26.63;;;;;;;;;;5135385;27;20229;-91
2021/11/09 08:06:50;;;;;;;24.03;19.33;;;;;;;;;;5135680;27;20187;-91
2021/11/09 08:09:22;;;;;;;29.23;22.03;;;;;;;;;;5136036;27;20200;-92
2021/11/09 08:11:51;;;;;;;23.67;18.30;;;;;;;;;;5135802;27;20193;-92
2021/11/09 08:14:19;;;;;;;24.83;19.70;;;;;;;;;;5135636;27;20253;-91
2021/11/09 08:16:47;;;;;;;28.93;21.20;;;;;;;;;;5135622;27;20555;-91
2021/11/09 08:19:16;;;;;;;23.73;19.60;;;;;;;;;;5135448;27;20191;-91
2021/11/09 08:21:44;;;;;;;22.77;17.90;;;;;;;;;;5135447;27;20716;-91
2021/11/09 08:24:15;;;;;;;27.33;19.93;;;;;;;;;;5135171;27;20218;-92
2021/11/09 08:26:43;;;;;;;26.67;21.27;;;;;;;;;;5135438;27;20198;-91
2021/11/09 08:29:12;;;;;;;24.83;19.67;;;;;;;;;;5135194;27;20190;-92
2021/11/09 08:31:43;;;;;;;26.07;19.10;;;;;;;;;;5134911;27;20202;-91
2021/11/09 08:34:11;;;;;;;31.13;22.27;;;;;;;;;;5134970;27;20182;-92
2021/11/09 08:36:42;;;;;;;28.80;22.57;;;;;;;;;;5135028;27;20553;-92
2021/11/09 08:39:10;;;;;;;28.17;22.03;;;;;;;;;;5134996;27;20274;-92
2021/11/09 08:41:41;;;;;;;31.93;24.90;;;;;;;;;;5134326;27;20290;-92
2021/11/09 08:44:15;;;;;;;28.97;20.37;;;;;;;;;;5134599;27;20271;-91
2021/11/09 08:46:45;;;;;;;25.90;20.20;;;;;;;;;;5134890;27;20202;-92
2021/11/09 08:49:14;;;;;;;27.57;21.90;;;;;;;;;;5134843;27;20213;-92
2021/11/09 08:51:43;;;;;;;28.13;20.57;;;;;;;;;;5134934;27;20195;-92
2021/11/09 08:54:14;;;;;;;27.97;18.87;;;;;;;;;;5135089;27;20651;-92
2021/11/09 09:04:58;;;;;;;33.13;27.60;;;;;;;;;;5135088;27;20296;-91
2021/11/09 09:07:25;;;;;;;29.10;22.57;;;;;;;;;;5134342;27;20758;-92
2021/11/09 09:09:56;;;;;;;23.90;19.53;;;;;;;;;;5134295;27;20654;-91
2021/11/09 09:12:24;;;;;;;25.67;18.33;;;;;;;;;;5134336;27;20221;-92
2021/11/09 09:14:53;;;;;;;24.57;19.17;;;;;;;;;;5134313;27;20205;-92
2021/11/09 09:17:21;;;;;;;28.80;23.07;;;;;;;;;;5134092;27;20284;-92
2021/11/09 09:19:52;;;;;;;32.03;26.23;;;;;;;;;;5134418;27;20280;-92
2021/11/09 09:22:24;;;;;;;29.97;21.97;;;;;;;;;;5134655;27;20183;-91
2021/11/09 09:27:53;;;;;;;26.00;19.60;;;;;;;;;;5133779;27;20193;-92
2021/11/09 09:30:36;;;;;;;29.10;18.93;;;;;;;;;;5133960;27;20225;-91
2021/11/09 09:52:50;;;;;;;25.03;18.93;;;;;;;;;;5134189;27;20193;-92
2021/11/09 09:55:37;;;;;;;22.97;20.03;;;;;;;;;;5138000;27;20194;-91
2021/11/09 09:58:04;;;;;;;26.67;22.20;;;;;;;;;;5137734;27;20183;-91
2021/11/09 10:00:33;;;;;;;45.67;37.43;;;;;;;;;;5138495;27;20186;-92
2021/11/09 10:03:01;;;;;;;32.23;25.37;;;;;;;;;;5138516;27;20229;-91
2021/11/09 10:05:29;;;;;;;31.90;23.40;;;;;;;;;;5137789;27;20186;-91
2021/11/09 10:07:59;;;;;;;29.07;23.93;;;;;;;;;;5137642;27;20789;-92
2021/11/09 10:10:29;;;;;;;28.67;20.47;;;;;;;;;;5137967;27;20616;-92
2021/11/09 10:12:59;;;;;;;29.70;22.17;;;;;;;;;;5137526;27;20218;-93
2021/11/09 10:15:28;;;;;;;31.13;21.30;;;;;;;;;;5137881;27;20285;-92
2021/11/09 10:17:57;;;;;;;28.13;18.37;;;;;;;;;;5137948;27;20248;-92
2021/11/09 10:20:28;;;;;;;33.90;21.73;;;;;;;;;;5137725;27;20194;-92
2021/11/09 10:22:57;;;;;;;26.30;20.07;;;;;;;;;;5138087;27;20206;-92
2021/11/09 10:25:25;;;;;;;27.03;19.40;;;;;;;;;;5137655;27;20243;-92
2021/11/09 10:27:55;;;;;;;25.80;20.63;;;;;;;;;;5137518;27;20199;-92
2021/11/09 10:30:26;;;;;;;33.27;22.50;;;;;;;;;;5137396;27;20197;-92
2021/11/09 10:32:55;;;;;;;27.00;20.63;;;;;;;;;;5137549;27;20186;-92
2021/11/09 10:35:24;;;;;;;25.67;18.63;;;;;;;;;;5137266;27;20232;-92
2021/11/09 10:37:54;;;;;;;28.53;21.37;;;;;;;;;;5137563;27;20194;-92
2021/11/09 10:40:24;;;;;;;26.70;20.03;;;;;;;;;;5137166;27;20273;-92
2021/11/09 10:42:54;;;;;;;30.43;20.33;;;;;;;;;;5137020;27;20202;-92
2021/11/09 10:45:24;;;;;;;24.80;19.47;;;;;;;;;;5137394;27;20198;-92
2021/11/09 10:47:53;;;;;;;24.27;18.87;;;;;;;;;;5137257;27;20233;-93
2021/11/09 10:50:22;;;;;;;27.03;20.63;;;;;;;;;;5137288;27;20662;-92
2021/11/09 10:53:02;;;;;;;32.07;22.80;;;;;;;;;;5137116;27;20705;-92
2021/11/09 10:55:34;;;;;;;27.00;20.47;;;;;;;;;;5137253;27;20187;-93
2021/11/09 10:58:17;;;;;;;27.90;23.57;;;;;;;;;;5137245;27;20683;-93
2021/11/09 11:03:50;;;;;;;32.40;22.70;;;;;;;;;;5136969;27;20291;-92
2021/11/09 11:06:20;;;;;;;29.70;19.10;;;;;;;;;;5136607;27;20197;-92
2021/11/09 11:08:50;;;;;;;25.43;20.37;;;;;;;;;;5136934;27;20233;-92
2021/11/09 11:11:25;;;;;;;30.33;21.00;;;;;;;;;;5136697;27;20199;-92
2021/11/09 11:13:54;;;;;;;26.97;20.17;;;;;;;;;;5137024;27;20182;-92
2021/11/09 11:16:22;;;;;;;23.97;19.43;;;;;;;;;;5136899;27;20267;-92
2021/11/09 11:18:53;;;;;;;30.53;22.93;;;;;;;;;;5136825;27;20195;-92
2021/11/09 11:21:23;;;;;;;36.50;25.53;;;;;;;;;;5136949;27;20190;-92
2021/11/09 11:23:52;;;;;;;34.53;26.23;;;;;;;;;;5136253;27;20309;-91
2021/11/09 11:26:20;;;;;;;28.87;20.63;;;;;;;;;;5136661;27;20243;-92
2021/11/09 11:28:50;;;;;;;27.33;22.67;;;;;;;;;;5136541;27;20195;-92
2021/11/09 11:31:18;;;;;;;27.53;22.73;;;;;;;;;;5136286;27;20205;-90
2021/11/09 11:33:46;;;;;;;29.60;21.90;;;;;;;;;;5136116;27;20211;-92
2021/11/09 11:36:14;;;;;;;29.70;20.17;;;;;;;;;;5136058;27;20201;-91
2021/11/09 11:38:43;;;;;;;32.27;22.27;;;;;;;;;;5136229;27;20675;-91
2021/11/09 11:41:13;;;;;;;29.23;21.07;;;;;;;;;;5136204;27;20197;-91
2021/11/09 11:44:05;;;;;;;18.97;15.43;;;;;;;;;;5136020;27;20219;-92
2021/11/09 11:46:47;;;;;;;19.33;14.93;;;;;;;;;;5116741;27;20215;-93
2021/11/09 11:49:34;;;;;;;21.30;14.13;;;;;;;;;;5135874;27;20682;-91
2021/11/09 11:52:16;;;;;;;15.07;12.93;;;;;;;;;;5127064;27;20580;-91
2021/11/09 11:54:55;;;;;;;13.23;11.10;;;;;;;;;;5136144;27;20247;-92
2021/11/09 11:57:44;;;;;;;16.27;13.07;;;;;;;;;;5136161;27;20243;-92
2021/11/09 12:00:43;;;;;;;23.93;15.83;;;;;;;;;;5135488;27;20287;-91
2021/11/09 12:03:41;;;;;;;11.20;8.97;;;;;;;;;;5135725;27;20190;-91
2021/11/09 12:06:26;;;;;;;12.50;9.27;;;;;;;;;;5136113;27;20187;-91
2021/11/09 12:08:55;;;;;;;9.50;7.60;;;;;;;;;;5135958;27;20238;-93
2021/11/09 12:11:40;;;;;;;10.23;7.43;;;;;;;;;;5136519;27;20393;-93
2021/11/09 12:14:11;;;;;;;9.03;7.27;;;;;;;;;;5135586;27;20225;-92
2021/11/09 12:17:02;;;;;;;10.90;7.37;;;;;;;;;;5134844;27;20189;-91
2021/11/09 12:19:53;;;;;;;8.43;6.27;;;;;;;;;;5133142;27;20214;-90
2021/11/09 12:22:22;;;;;;;9.27;6.97;;;;;;;;;;5135325;27;20653;-93
2021/11/09 12:24:52;;;;;;;8.23;6.63;;;;;;;;;;5135448;27;20222;-92
2021/11/09 12:27:21;;;;;;;9.07;6.27;;;;;;;;;;5135091;27;20183;-93
2021/11/09 12:29:52;;;;;;;7.87;7.07;;;;;;;;;;5135016;27;20197;-92
2021/11/09 12:32:31;;;;;;;13.80;9.90;;;;;;;;;;5135050;27;20179;-92
2021/11/09 12:35:03;;;;;;;15.73;9.60;;;;;;;;;;5135573;27;20277;-91
2021/11/09 12:37:31;;;;;;;8.80;7.63;;;;;;;;;;5135384;27;20643;-92
2021/11/09 12:40:24;;;;;;;9.33;7.30;;;;;;;;;;5135054;27;20570;-93
2021/11/09 12:43:18;;;;;;;7.27;4.87;;;;;;;;;;5134824;27;20195;-92
2021/11/09 12:45:50;;;;;;;7.03;5.53;;;;;;;;;;5134778;27;20253;-92
2021/11/09 12:48:23;;;;;;;5.93;5.33;;;;;;;;;;5134781;27;20190;-92
2021/11/09 12:50:53;;;;;;;5.90;4.77;;;;;;;;;;5134554;27;20276;-92
2021/11/09 12:53:23;;;;;;;7.27;5.30;;;;;;;;;;5134774;27;20191;-94
2021/11/09 12:56:05;;;;;;;7.60;5.47;;;;;;;;;;5134872;27;20647;-92
2021/11/09 12:58:35;;;;;;;7.87;6.17;;;;;;;;;;5134672;27;20788;-94
2021/11/09 13:04:06;;;;;;;7.80;6.50;;;;;;;;;;5124202;27;20693;-93
2021/11/09 13:07:01;;;;;;;7.63;5.57;;;;;;;;;;5135139;27;20216;-93
2021/11/09 13:09:32;;;;;;;7.47;6.37;;;;;;;;;;5134250;27;20585;-93
2021/11/09 13:12:01;;;;;;;7.87;5.63;;;;;;;;;;5134452;27;20199;-92
2021/11/09 13:14:36;;;;;;;9.23;7.97;;;;;;;;;;5134377;27;20651;-92
2021/11/09 13:17:13;;;;;;;7.17;6.47;;;;;;;;;;5134809;27;20193;-93
2021/11/09 13:19:43;;;;;;;5.47;3.27;;;;;;;;;;5134554;27;20194;-92
2021/11/09 13:22:14;;;;;;;4.30;3.57;;;;;;;;;;5134955;27;20220;-92
2021/11/09 13:24:46;;;;;;;6.40;3.40;;;;;;;;;;5134594;27;20291;-93
2021/11/09 13:27:14;;;;;;;5.60;2.90;;;;;;;;;;5134172;27;20205;-95
2021/11/09 13:29:47;;;;;;;2.97;2.30;;;;;;;;;;5134305;27;20282;-92
2021/11/09 13:32:18;;;;;;;2.73;2.53;;;;;;;;;;5134915;27;20195;-93
2021/11/09 13:34:56;;;;;;;3.33;2.83;;;;;;;;;;5134418;27;20210;-92
2021/11/09 13:37:24;;;;;;;3.80;2.40;;;;;;;;;;5134271;27;20198;-93
2021/11/09 13:40:03;;;;;;;4.63;3.00;;;;;;;;;;5134100;27;20264;-93
2021/11/09 13:42:30;;;;;;;4.33;3.27;;;;;;;;;;5134064;27;20232;-93
2021/11/09 13:44:59;;;;;;;3.60;3.30;;;;;;;;;;5134253;27;20282;-92
2021/11/09 13:47:37;;;;;;;7.07;6.17;;;;;;;;;;5133888;27;20195;-92
2021/11/09 13:50:07;;;;;;;6.73;5.37;;;;;;;;;;5134241;27;20183;-92
2021/11/09 13:52:34;;;;;;;3.97;3.37;;;;;;;;;;5134751;28;20210;-92
2021/11/09 13:55:01;;;;;;;4.47;3.60;;;;;;;;;;5133740;28;20251;-92
2021/11/09 13:57:30;;;;;;;4.20;3.80;;;;;;;;;;5133587;28;20659;-93
2021/11/09 13:59:58;;;;;;;4.17;3.77;;;;;;;;;;5134167;28;20257;-94
2021/11/09 14:02:31;;;;;;;3.87;3.50;;;;;;;;;;5133470;27;20255;-94
2021/11/09 14:08:02;;;;;;;4.20;3.83;;;;;;;;;;5115793;27;20191;-95
2021/11/09 14:10:54;;;;;;;3.97;3.57;;;;;;;;;;5133830;28;20198;-93
2021/11/09 14:13:34;;;;;;;5.77;4.33;;;;;;;;;;5133765;28;20195;-93
2021/11/09 14:16:30;;;;;;;5.53;3.90;;;;;;;;;;5133462;28;20179;-94
2021/11/09 14:18:57;;;;;;;3.17;2.87;;;;;;;;;;5133527;27;20194;-93
2021/11/09 14:21:35;;;;;;;4.13;2.23;;;;;;;;;;5133418;28;20198;-92
2021/11/09 14:24:18;;;;;;;2.70;2.50;;;;;;;;;;5133513;28;20289;-94
2021/11/09 14:26:48;;;;;;;1.67;1.57;;;;;;;;;;5133454;28;20195;-94
2021/11/09 14:29:21;;;;;;;2.43;2.20;;;;;;;;;;5133676;28;20186;-93
2021/11/09 14:32:00;;;;;;;2.47;2.27;;;;;;;;;;5133557;28;20205;-93
2021/11/09 14:34:28;;;;;;;2.30;2.10;;;;;;;;;;5133487;28;20237;-94
2021/11/09 14:37:08;;;;;;;5.57;2.33;;;;;;;;;;5134258;28;20655;-95
2021/11/09 14:39:40;;;;;;;1.53;1.43;;;;;;;;;;5135150;27;20248;-93
2021/11/09 14:42:13;;;;;;;1.60;1.50;;;;;;;;;;5137514;27;20644;-94
2021/11/09 14:45:06;;;;;;;1.53;1.43;;;;;;;;;;5137390;27;20203;-94
2021/11/09 14:47:41;;;;;;;2.47;2.27;;;;;;;;;;5137328;27;20584;-94
2021/11/09 14:50:16;;;;;;;1.30;1.20;;;;;;;;;;5137368;27;20206;-95
2021/11/09 14:52:45;;;;;;;3.63;1.10;;;;;;;;;;5137204;27;20577;-94
2021/11/09 14:55:20;;;;;;;1.23;1.20;;;;;;;;;;5137015;27;20195;-95
2021/11/09 14:58:26;;;;;;;0.83;0.83;;;;;;;;;;5137140;27;20217;-93
2021/11/09 15:00:58;;;;;;;1.00;1.00;;;;;;;;;;5137599;27;20659;-94
2021/11/09 15:03:27;;;;;;;1.27;1.17;;;;;;;;;;5137685;27;20285;-93
2021/11/09 15:05:56;;;;;;;1.70;1.60;;;;;;;;;;5137041;27;20218;-94
2021/11/09 15:08:30;;;;;;;2.80;2.23;;;;;;;;;;5137176;27;20232;-95
2021/11/09 15:11:11;;;;;;;3.23;2.80;;;;;;;;;;5137549;27;20650;-94
2021/11/09 15:27:27;;;;;;;2.90;2.67;;;;;;;;;;5116318;28;20179;-94
2021/11/09 15:29:56;;;;;;;2.30;2.10;;;;;;;;;;5116296;28;20195;-95
2021/11/09 15:32:28;;;;;;;2.40;2.20;;;;;;;;;;5116875;28;20195;-96
2021/11/09 15:35:07;;;;;;;1.50;1.40;;;;;;;;;;5116172;27;20204;-95
2021/11/09 15:37:37;;;;;;;1.90;1.80;;;;;;;;;;5116474;28;20720;-96
2021/11/09 15:40:12;;;;;;;1.60;1.50;;;;;;;;;;5126600;27;20213;-96
2021/11/09 15:42:40;;;;;;;1.70;1.60;;;;;;;;;;5138959;27;20205;-96
2021/11/09 15:45:08;;;;;;;0.90;0.90;;;;;;;;;;5142392;27;20222;-96
2021/11/09 15:47:39;;;;;;;1.37;0.90;;;;;;;;;;5143250;27;20224;-96
2021/11/09 15:50:08;;;;;;;0.80;0.80;;;;;;;;;;5137298;27;20258;-95
2021/11/09 15:52:36;;;;;;;1.50;1.40;;;;;;;;;;5136267;27;20286;-94
2021/11/09 15:55:07;;;;;;;5.93;1.30;;;;;;;;;;5136251;27;20251;-91
2021/11/09 15:57:35;;;;;;;1.50;1.40;;;;;;;;;;5136580;27;20218;-95
2021/11/09 16:00:03;;;;;;;2.53;1.63;;;;;;;;;;5136277;27;20226;-96
2021/11/09 16:02:35;;;;;;;2.63;1.40;;;;;;;;;;5138926;27;20195;-94
2021/11/09 16:05:08;;;;;;;2.13;1.40;;;;;;;;;;5141955;27;20219;-96
2021/11/09 16:07:37;;;;;;;1.70;1.60;;;;;;;;;;5149814;27;20202;-96
2021/11/09 16:10:08;;;;;;;5.07;3.23;;;;;;;;;;5141802;27;20215;-95
2021/11/09 16:12:37;;;;;;;4.40;4.00;;;;;;;;;;5139459;27;20213;-94
2021/11/09 16:15:06;;;;;;;2.93;2.23;;;;;;;;;;5147204;27;20198;-95
2021/11/09 16:17:34;;;;;;;1.60;1.50;;;;;;;;;;5151558;27;20217;-96
2021/11/09 16:20:03;;;;;;;4.00;1.70;;;;;;;;;;5147364;27;20202;-95
2021/11/09 16:22:34;;;;;;;3.27;1.43;;;;;;;;;;5144855;27;20190;-96
2021/11/09 16:25:02;;;;;;;1.67;1.53;;;;;;;;;;5147579;27;20229;-95
2021/11/09 16:27:34;;;;;;;2.57;2.37;;;;;;;;;;5145285;27;20195;-96
2021/11/09 16:30:10;;;;;;;3.10;2.80;;;;;;;;;;5151164;27;20196;-96
2021/11/09 16:32:52;;;;;;;2.27;1.90;;;;;;;;;;5155926;27;20193;-96
2021/11/09 16:35:31;;;;;;;1.97;1.47;;;;;;;;;;5153456;27;20171;-96
2021/11/09 16:38:08;;;;;;;4.10;2.07;;;;;;;;;;5151530;27;20266;-96
2021/11/09 16:40:42;;;;;;;4.10;2.57;;;;;;;;;;5155059;27;20211;-96
2021/11/09 16:43:14;;;;;;;3.07;2.70;;;;;;;;;;5149479;27;20190;-96
2021/11/09 16:45:47;;;;;;;2.67;2.23;;;;;;;;;;5151592;27;20234;-96
2021/11/09 16:48:18;;;;;;;2.17;1.97;;;;;;;;;;5153468;27;20191;-96
2021/11/09 16:51:28;;;;;;;;;;;;;;;;;;;;;
2021/11/09 16:54:01;;;;;;;2.00;1.60;;;;;;;;;;5151387;27;20190;-96
2021/11/09 16:56:51;;;;;;;2.80;1.83;;;;;;;;;;5143544;27;20250;-96